Latest Weather Observations for Giles*

IDW60801

Issued at 10:53 am WST Monday 27 January 2020 (issued every 10 minutes, with the page automatically refreshed every 10 minutes)

About weather observations | Map of weather stations | Latest weather observations for WA | Other Formats
Station Details ID: 013017 Name: GILES METEOROLOGICAL OFFICE Lat: -25.03 Lon: 128.30 Height: 598.0 m
Data from the previous 72 hours. | See also: Recent months at Giles*

* Giles observations are collected in the South Australia time zone, which includes daylight saving in the summer period. Therefore, Rain since 9am value is with respect to South Australia local time.

Date/Time
WST
Temp
°C
App
Temp
°C
Dew
Point
°C
Rel
Hum
%
Delta-T
°C
Wind Press
QNH
hPa
Press
MSL
hPa
Rain since
9am
mm
Dir  Spd
km/h
Gust
km/h
Spd
kts
Gust
kts
27/10:30am 35.9 31.1 -2.4 8 18.8 E 13 22 7 12 1015.4 1010.6 0.0
27/10:00am 35.0 30.5 -0.2 10 17.8 ENE 13 24 7 13 1015.7 1010.8 0.0
27/09:30am 35.1 29.1 -2.9 9 18.4 E 19 26 10 14 1015.8 1010.9 0.0
27/09:00am 34.3 28.5 -1.8 10 17.7 E 19 30 10 16 1015.9 1011.0 0.0
27/08:30am 33.6 27.7 -0.9 11 17.1 ENE 20 33 11 18 1015.9 1011.0 0.0
27/08:00am 32.4 26.6 -1.5 11 16.5 E 19 28 10 15 1016.0 1011.1 0.0
27/07:30am 31.4 25.7 -0.6 12 15.7 E 19 24 10 13 1015.9 1011.0 0.0
27/07:00am 30.2 25.5 0.6 15 14.7 E 15 20 8 11 1015.8 1010.9 0.0
27/06:30am 28.2 24.4 1.9 18 13.2 E 11 17 6 9 1015.6 1010.7 0.0
27/06:00am 26.5 25.2 4.0 23 11.6 CALM 0 0 0 0 1015.3 1010.4 0.0
27/05:30am 25.0 20.5 2.4 23 11.2 E 15 24 8 13 1014.7 1009.8 0.0
27/05:00am 24.6 19.2 2.3 23 11.0 E 20 28 11 15 1014.2 1009.3 0.0
27/04:30am 24.2 19.1 2.9 25 10.6 ESE 19 22 10 12 1014.0 1009.1 0.0
27/04:00am 23.6 18.9 3.1 26 10.2 ESE 17 22 9 12 1013.9 1009.0 0.0
27/03:30am 24.2 19.5 2.9 25 10.6 E 17 20 9 11 1013.9 1009.0 0.0
27/03:00am 25.0 20.2 2.8 23 11.1 ESE 17 22 9 12 1013.9 1009.0 0.0
27/02:30am 25.3 20.5 2.7 23 11.3 ESE 17 22 9 12 1013.8 1008.8 0.0
27/02:00am 24.6 20.6 2.7 24 10.9 ESE 13 17 7 9 1013.8 1008.8 0.0
27/01:30am 25.1 20.6 2.3 22 11.3 ESE 15 19 8 10 1013.8 1008.8 0.0
27/01:00am 25.5 21.0 2.0 21 11.6 ESE 15 17 8 9 1013.8 1008.8 0.0
27/12:30am 26.0 21.5 2.0 21 11.9 ESE 15 19 8 10 1014.0 1009.1 0.0
27/12:00am 26.7 22.1 1.6 19 12.4 ESE 15 17 8 9 1014.2 1009.3 0.0
 
Date/Time
WST
Temp
°C
App
Temp
°C
Dew
Point
°C
Rel
Hum
%
Delta-T
°C
Wind Press
QNH
hPa
Press
MSL
hPa
Rain since
9am
mm
Dir  Spd
km/h
Gust
km/h
Spd
kts
Gust
kts
26/11:30pm 27.8 23.6 1.8 18 13.0 ESE 13 17 7 9 1014.4 1009.5 0.0
26/11:00pm 28.4 24.1 1.2 17 13.5 ESE 13 17 7 9 1014.4 1009.5 0.0
26/10:30pm 28.8 23.6 0.2 15 14.0 ESE 17 20 9 11 1014.3 1009.4 0.0
26/10:00pm 29.7 24.7 -1.0 13 14.8 ESE 15 22 8 12 1014.2 1009.3 0.0
26/09:30pm 29.3 25.1 -0.7 14 14.5 SE 11 15 6 8 1014.0 1009.1 0.0
26/09:00pm 29.8 25.3 -0.3 14 14.7 SE 13 15 7 8 1013.8 1008.8 0.0
26/08:30pm 30.3 24.9 -1.2 13 15.2 SE 17 19 9 10 1013.4 1008.5 0.0
26/08:00pm 30.1 26.5 0.9 15 14.6 SE 9 11 5 6 1013.2 1008.3 0.0
26/07:30pm 31.0 27.1 1.0 14 15.1 SE 11 13 6 7 1013.0 1008.1 0.0
26/07:00pm 32.5 28.8 0.2 12 16.2 SE 9 11 5 6 1012.6 1007.7 0.0
26/06:30pm 34.1 31.1 0.5 12 17.1 SE 6 9 3 5 1012.3 1007.3 0.0
26/06:00pm 35.9 32.2 0.1 10 18.3 SE 9 13 5 7 1012.0 1007.0 0.0
26/05:30pm 36.9 32.3 -3.8 7 19.7 SSE 11 17 6 9 1011.8 1006.9 0.0
26/05:00pm 37.1 31.6 -5.4 6 20.1 SSE 15 22 8 12 1011.6 1006.7 0.0
26/04:30pm 37.4 31.9 -5.5 6 20.3 SE 15 22 8 12 1011.6 1006.7 0.0
26/04:00pm 37.4 31.0 -6.9 6 20.5 SE 19 30 10 16 1011.6 1006.7 0.0
26/03:30pm 37.3 33.9 -2.4 8 19.7 WSW 6 17 3 9 1011.7 1006.8 0.0
26/03:00pm 37.6 31.7 -6.1 6 20.5 E 17 24 9 13 1011.8 1006.9 0.0
26/02:30pm 37.6 31.8 -4.8 6 20.3 E 17 26 9 14 1012.4 1007.5 0.0
26/02:00pm 37.4 31.6 -5.0 6 20.2 SE 17 28 9 15 1012.8 1007.9 0.0
26/01:30pm 37.0 32.0 -4.7 7 19.9 SW 13 33 7 18 1013.0 1008.1 0.0
26/01:00pm 36.8 30.2 -6.7 6 20.1 SE 20 32 11 17 1013.3 1008.4 0.0
26/12:30pm 36.3 31.5 -2.6 8 19.1 E 13 26 7 14 1013.8 1008.8 0.0
26/12:00pm 35.6 30.6 -3.9 8 18.9 E 13 20 7 11 1014.1 1009.2 0.0
26/11:30am 35.1 30.4 -1.8 9 18.2 E 13 24 7 13 1014.5 1009.6 0.0
26/11:00am 35.1 29.8 -3.4 8 18.5 NNE 15 26 8 14 1014.8 1009.9 0.0
26/10:30am 34.6 28.2 -4.5 8 18.4 NNE 20 37 11 20 1015.2 1010.3 0.0
26/10:00am 34.2 28.3 -2.6 9 17.8 NE 19 28 10 15 1015.3 1010.4 0.0
26/09:30am 34.3 27.5 -5.0 8 18.3 NE 22 33 12 18 1015.6 1010.7 0.0
26/09:00am 33.9 27.7 -3.0 9 17.7 ENE 20 32 11 17 1015.8 1010.9 0.0
26/08:30am 32.6 27.2 -1.4 11 16.6 ENE 17 26 9 14 1015.7 1010.8 0.0
26/08:00am 31.5 25.6 -2.6 11 16.2 ENE 19 28 10 15 1015.6 1010.7 0.0
26/07:30am 30.1 24.7 -1.3 13 15.1 SE 17 24 9 13 1015.6 1010.7 0.0
26/07:00am 28.7 24.1 -0.9 14 14.2 SE 13 20 7 11 1015.3 1010.4 0.0
26/06:30am 26.9 22.6 0.9 18 12.7 SE 13 20 7 11 1015.1 1010.2 0.0
26/06:00am 24.9 21.1 1.5 21 11.4 SE 11 17 6 9 1014.6 1009.7 0.0
26/05:30am 22.9 18.7 1.4 24 10.3 SE 13 19 7 10 1014.3 1009.4 0.0
26/05:00am 21.9 18.1 2.0 27 9.6 SE 11 15 6 8 1014.1 1009.2 0.0
26/04:30am 21.2 19.7 3.0 30 8.9 CALM 0 6 0 3 1013.9 1009.0 0.0
26/04:00am 22.2 19.0 3.1 28 9.4 SE 9 13 5 7 1013.6 1008.7 0.0
26/03:30am 23.5 19.2 1.2 23 10.7 SE 13 17 7 9 1013.4 1008.5 0.0
26/03:00am 24.4 20.1 0.9 21 11.3 SSE 13 17 7 9 1013.3 1008.4 0.0
26/02:30am 25.0 20.3 0.7 20 11.7 SSE 15 19 8 10 1013.0 1008.1 0.0
26/02:00am 25.4 20.6 0.0 19 12.1 SSE 15 19 8 10 1013.0 1008.1 0.0
26/01:30am 26.0 21.1 -0.2 18 12.5 SSE 15 20 8 11 1012.8 1007.9 0.0
26/01:00am 26.8 21.0 -1.3 16 13.2 SSE 19 26 10 14 1012.8 1007.9 0.0
26/12:30am 27.2 21.4 -1.6 15 13.5 SSE 19 24 10 13 1012.9 1008.0 0.0
26/12:00am 28.0 21.9 -2.2 14 14.1 SSE 20 28 11 15 1013.0 1008.1 0.0
 
Date/Time
WST
Temp
°C
App
Temp
°C
Dew
Point
°C
Rel
Hum
%
Delta-T
°C
Wind Press
QNH
hPa
Press
MSL
hPa
Rain since
9am
mm
Dir  Spd
km/h
Gust
km/h
Spd
kts
Gust
kts
25/11:30pm 28.3 22.4 -2.4 13 14.3 SSE 19 30 10 16 1013.1 1008.2 0.0
25/11:00pm 28.7 22.8 -2.2 13 14.5 SSE 19 24 10 13 1013.2 1008.3 0.0
25/10:30pm 29.6 23.5 -2.6 12 15.1 SSE 20 28 11 15 1013.4 1008.5 0.0
25/10:00pm 30.0 24.1 -2.5 12 15.3 SSE 19 24 10 13 1013.4 1008.5 0.0
25/09:30pm 30.8 24.3 -2.6 11 15.8 SSE 22 30 12 16 1013.2 1008.3 0.0
25/09:00pm 31.2 25.4 -1.5 12 15.8 SSE 19 28 10 15 1012.9 1008.0 0.0
25/08:30pm 31.6 26.3 -0.4 13 15.8 S 17 22 9 12 1012.6 1007.7 0.0
25/08:00pm 32.6 27.0 0.1 12 16.3 SSE 19 24 10 13 1012.1 1007.1 0.0
25/07:30pm 33.2 27.7 0.3 12 16.6 SSE 19 24 10 13 1011.7 1006.8 0.0
25/07:00pm 33.6 29.0 1.4 13 16.6 SSE 15 19 8 10 1011.5 1006.6 0.0
25/06:30pm 34.5 30.2 1.2 12 17.2 SSE 13 20 7 11 1011.1 1006.2 0.0
25/06:00pm 35.9 30.7 0.2 10 18.3 SSE 17 26 9 14 1010.6 1005.6 0.0
25/05:30pm 36.8 31.1 -0.4 9 19.0 S 19 30 10 16 1010.4 1005.4 0.0
25/05:00pm 37.5 31.1 -1.7 8 19.7 SSE 22 30 12 16 1010.0 1005.1 0.0
25/04:30pm 37.5 32.2 -0.3 9 19.4 SW 17 28 9 15 1010.0 1005.1 0.0
25/04:00pm 38.1 32.1 -1.8 8 20.1 SSW 20 32 11 17 1009.9 1005.0 0.0
25/03:30pm 38.3 33.4 -0.2 9 19.9 S 15 28 8 15 1010.2 1005.2 0.0
25/03:00pm 38.4 34.5 0.9 9 19.7 SSE 11 24 6 13 1010.5 1005.5 0.0
25/02:30pm 37.6 33.9 2.6 11 18.8 SSE 11 20 6 11 1010.9 1006.0 0.0
25/02:00pm 37.3 33.0 0.9 10 19.0 SSE 13 20 7 11 1011.2 1006.3 0.0
25/01:30pm 36.8 33.9 4.4 13 17.8 NNW 9 17 5 9 1011.6 1006.7 0.0
25/01:00pm 37.0 33.3 4.5 13 17.9 NW 13 22 7 12 1012.1 1007.1 0.0
25/12:30pm 36.5 32.8 4.4 13 17.6 SE 13 24 7 13 1012.6 1007.7 0.0
25/12:00pm 36.4 32.4 3.1 12 17.9 NW 13 20 7 11 1013.0 1008.1 0.0
25/11:30am 35.8 31.5 3.5 13 17.4 SSE 15 22 8 12 1013.5 1008.6 0.0
25/11:00am 35.8 32.9 6.6 16 16.5 ENE 11 17 6 9 1013.9 1009.0 0.0
25/10:30am 35.4 32.3 5.4 15 16.6 ESE 11 24 6 13 1014.1 1009.2 0.0
25/10:00am 34.4 31.2 6.9 18 15.5 NE 13 24 7 13 1014.5 1009.6 0.0
25/09:30am 34.1 29.9 5.7 17 15.7 ENE 17 28 9 15 1014.7 1009.8 0.0
25/09:00am 32.9 29.4 7.1 20 14.5 ENE 15 22 8 12 1014.9 1010.0 0.0
25/08:30am 31.8 27.5 5.2 18 14.4 ENE 17 24 9 13 1014.8 1009.9 0.0
25/08:00am 30.3 25.2 4.2 19 13.8 ENE 20 28 11 15 1014.9 1010.0 0.0
25/07:30am 29.1 23.5 1.3 16 13.9 E 20 28 11 15 1014.8 1009.9 0.0
25/07:00am 27.6 21.9 0.6 17 13.2 ESE 20 28 11 15 1014.8 1009.9 0.0
25/06:30am 26.3 20.4 -0.8 17 12.8 ESE 20 30 11 16 1014.6 1009.7 0.0
25/06:00am 24.4 18.5 -1.1 18 11.8 SE 20 24 11 13 1014.4 1009.5 0.0
25/05:30am 22.3 18.4 1.3 25 10.0 SE 11 15 6 8 1014.3 1009.4 0.0
25/05:00am 21.4 17.7 2.4 28 9.2 SE 11 15 6 8 1014.0 1009.1 0.0
25/04:30am 21.0 19.7 3.9 32 8.5 CALM 0 6 0 3 1013.9 1009.0 0.0
25/04:00am 21.9 17.9 2.9 28 9.3 SE 13 17 7 9 1013.6 1008.7 0.0
25/03:30am 22.4 18.0 2.5 27 9.7 SE 15 20 8 11 1013.5 1008.6 0.0
25/03:00am 22.9 18.5 2.5 26 10.0 SE 15 17 8 9 1013.4 1008.5 0.0
25/02:30am 24.0 18.7 1.9 23 10.8 SE 19 22 10 12 1013.4 1008.5 0.0
25/02:00am 24.8 19.5 1.7 22 11.3 SE 19 24 10 13 1013.5 1008.6 0.0
25/01:30am 25.6 20.0 1.5 20 11.8 SE 20 26 11 14 1013.5 1008.6 0.0
25/01:00am 26.0 20.7 2.0 21 11.9 SE 19 28 10 15 1013.6 1008.7 0.0
25/12:30am 26.4 20.6 2.4 21 12.0 SE 22 30 12 16 1013.9 1009.0 0.0
25/12:00am 26.8 21.4 2.6 21 12.2 SE 20 26 11 14 1014.3 1009.4 0.0
 
Date/Time
WST
Temp
°C
App
Temp
°C
Dew
Point
°C
Rel
Hum
%
Delta-T
°C
Wind Press
QNH
hPa
Press
MSL
hPa
Rain since
9am
mm
Dir  Spd
km/h
Gust
km/h
Spd
kts
Gust
kts
24/11:30pm 27.4 22.0 2.7 20 12.5 SE 20 28 11 15 1014.4 1009.5 0.0
24/11:00pm 28.1 22.4 2.8 19 12.9 SE 22 30 12 16 1014.5 1009.6 0.0
24/10:30pm 28.6 23.3 3.1 19 13.1 SE 20 30 11 16 1014.6 1009.7 0.0
24/10:00pm 29.2 24.0 3.3 19 13.4 SSE 20 32 11 17 1014.3 1009.4 0.0
24/09:30pm 30.0 23.6 3.2 18 13.9 SSE 26 35 14 19 1014.0 1009.1 0.0
24/09:00pm 30.6 24.7 3.8 18 14.1 SSE 24 39 13 21 1013.6 1008.7 0.0
24/08:30pm 31.2 25.7 4.0 18 14.4 SSE 22 33 12 18 1013.3 1008.4 0.0
24/08:00pm 31.8 26.4 4.3 17 14.7 SSE 22 32 12 17 1012.9 1008.0 0.0
24/07:30pm 31.4 27.9 5.4 19 14.1 SE 13 17 7 9 1012.6 1007.7 0.0
24/07:00pm 32.6 29.1 5.6 18 14.8 SE 13 17 7 9 1012.2 1007.2 0.0
24/06:30pm 33.7 29.6 4.6 16 15.8 SE 15 17 8 9 1011.7 1006.8 0.0
24/06:00pm 35.0 30.8 3.6 14 16.9 SE 15 24 8 13 1011.3 1006.4 0.0
24/05:30pm 35.7 31.7 4.8 14 17.0 SE 15 20 8 11 1011.1 1006.2 0.0
24/05:00pm 35.8 33.4 5.4 15 16.9 SE 7 13 4 7 1010.8 1005.9 0.0
24/04:30pm 36.1 32.7 3.9 13 17.5 SE 11 20 6 11 1010.7 1005.7 0.0
24/04:00pm 36.5 33.1 4.1 13 17.7 SE 11 24 6 13 1010.8 1005.9 0.0
24/03:30pm 35.8 31.9 5.3 15 16.9 SE 15 22 8 12 1011.0 1006.1 0.0
24/03:00pm 35.9 32.8 5.6 15 16.9 SE 11 19 6 10 1011.2 1006.3 0.0
24/02:30pm 35.7 32.0 6.1 16 16.6 SE 15 26 8 14 1011.5 1006.6 0.0
24/02:00pm 35.5 32.4 5.4 15 16.7 SE 11 24 6 13 1011.8 1006.9 0.0
24/01:30pm 35.3 32.5 6.9 17 16.1 WSW 11 19 6 10 1012.2 1007.2 0.0
24/01:00pm 34.9 31.8 5.4 16 16.3 SSE 11 20 6 11 1012.6 1007.7 0.0
24/12:30pm 34.7 31.7 7.5 18 15.5 ENE 13 28 7 15 1012.9 1008.0 0.0
24/12:00pm 34.2 30.8 7.5 19 15.2 ENE 15 28 8 15 1013.3 1008.4 0.0
24/11:30am 33.5 29.5 6.7 19 15.0 SE 17 26 9 14 1013.9 1009.0 0.0
24/11:00am 33.0 28.7 7.0 20 14.6 E 19 28 10 15 1014.4 1009.5 0.0
24/10:30am 32.7 28.5 7.3 20 14.3 ESE 19 32 10 17 1014.7 1009.8 0.0
24/10:00am 32.1 27.7 7.6 21 13.8 ESE 20 33 11 18 1015.2 1010.3 0.0
24/09:30am 31.2 26.4 7.4 22 13.3 ESE 22 33 12 18 1015.3 1010.4 0.0
24/09:00am 29.8 23.9 7.5 24 12.4 ESE 28 37 15 20 1015.4 1010.6 0.0
24/08:30am 28.7 22.9 7.9 27 11.6 ESE 28 39 15 21 1015.6 1010.7 0.0

Other formats

Comma delimited format used in spreadsheet applications
http://www.bom.gov.au/fwo/IDW60801/IDW60801.94461.axf

JavaScript Object Notation format (JSON) in row-major order
http://www.bom.gov.au/fwo/IDW60801/IDW60801.94461.json

Data quality

Most of these data are generated automatically and are frequently updated. Quality checks on data are not normally performed. It is possible for incorrect values to appear. Refer to information at About Latest Weather Observations and please check the disclaimer before using these data.